Latest Weather Observations for St George

IDQ60801

Issued at 2:32 pm EST Wednesday 26 July 2017 (issued every 30 minutes, with the page automatically refreshed every 10 minutes)

About weather observations | Map of weather stations | Latest weather observations for QLD | Other Formats
Station Details ID: 043109 Name: ST GEORGE AIRPORT Lat: -28.05 Lon: 148.59 Height: 198.5 m
Data from the previous 72 hours. | See also: Recent months at St George
Date/Time
EST
Temp
°C
App
Temp
°C
Dew
Point
°C
Rel
Hum
%
Delta-T
°C
Wind Press
QNH
hPa
Press
MSL
hPa
Rain since
9am
mm
Dir  Spd
km/h
Gust
km/h
Spd
kts
Gust
kts
26/02:30pm 25.8 21.5 -4.7 13 13.0 SSW 9 24 5 13 1020.6 - 0.0
26/02:00pm 26.2 20.4 -4.4 13 13.2 W 17 28 9 15 1020.8 - 0.0
26/01:30pm 26.1 19.4 -4.4 13 13.2 W 22 35 12 19 1021.2 - 0.0
26/01:00pm 25.8 19.7 -3.7 14 12.9 WSW 19 32 10 17 1021.7 - 0.0
26/12:30pm 25.4 20.1 -4.0 14 12.7 WNW 15 24 8 13 1022.2 - 0.0
26/12:00pm 24.4 19.0 -4.8 14 12.3 NW 15 24 8 13 1023.0 1023.1 0.0
26/11:30am 24.2 18.1 -4.0 15 12.1 WNW 19 24 10 13 1023.3 - 0.0
26/11:00am 22.6 17.2 -4.5 16 11.3 NNW 15 22 8 12 1023.7 - 0.0
26/10:30am 21.3 16.0 -4.0 18 10.5 NNW 15 20 8 11 1023.9 - 0.0
26/10:00am 20.0 14.8 -3.0 21 9.7 NNW 15 19 8 10 1024.2 - 0.0
26/09:30am 17.7 12.5 -3.1 24 8.5 N 15 19 8 10 1024.4 - 0.0
26/09:00am 16.1 10.9 -2.4 28 7.5 N 15 20 8 11 1024.2 1024.3 0.0
26/08:30am 13.5 8.7 -2.8 32 6.4 N 13 19 7 10 1024.2 - 0.0
26/08:00am 11.5 6.6 -3.4 35 5.7 N 13 20 7 11 1024.0 - 0.0
26/07:30am 10.2 5.3 -3.5 38 5.1 N 13 17 7 9 1023.8 - 0.0
26/07:00am 8.3 3.8 -3.5 43 4.3 N 11 13 6 7 1023.6 - 0.0
26/06:30am 8.6 4.1 -3.6 42 4.5 N 11 15 6 8 1023.4 - 0.0
26/06:00am 8.6 4.1 -3.3 43 4.4 N 11 13 6 7 1023.3 1023.4 0.0
26/05:30am 7.8 4.0 -3.4 45 4.1 N 7 9 4 5 1023.0 - 0.0
26/05:00am 9.6 5.1 -3.0 41 4.8 N 11 13 6 7 1022.8 - 0.0
26/04:30am 9.0 5.0 -2.6 44 4.4 N 9 13 5 7 1022.7 - 0.0
26/04:00am 8.7 4.7 -2.3 46 4.2 N 9 13 5 7 1022.8 - 0.0
26/03:30am 7.8 4.2 -2.2 49 3.8 N 7 11 4 6 1022.9 - 0.0
26/03:00am 9.2 5.6 -2.4 44 4.4 N 7 9 4 5 1023.1 1023.2 0.0
26/02:30am 9.3 5.0 -1.4 47 4.2 N 11 13 6 7 1023.1 - 0.0
26/02:00am 7.1 3.8 -1.6 54 3.3 N 6 7 3 4 1023.3 - 0.0
26/01:30am 7.4 3.5 -1.8 52 3.5 N 9 11 5 6 1023.3 - 0.0
26/01:00am 6.5 2.6 -1.6 56 3.0 N 9 11 5 6 1023.4 - 0.0
26/12:30am 7.4 4.1 -1.5 53 3.4 N 6 7 3 4 1023.3 - 0.0
26/12:00am 7.1 3.6 -2.9 49 3.6 NNE 6 7 3 4 1023.3 1023.4 0.0
 
Date/Time
EST
Temp
°C
App
Temp
°C
Dew
Point
°C
Rel
Hum
%
Delta-T
°C
Wind Press
QNH
hPa
Press
MSL
hPa
Rain since
9am
mm
Dir  Spd
km/h
Gust
km/h
Spd
kts
Gust
kts
25/11:30pm 7.5 3.8 -2.5 49 3.7 NNE 7 7 4 4 1023.4 - 0.0
25/11:00pm 8.0 4.5 -2.6 47 4.0 NNE 6 7 3 4 1023.4 - 0.0
25/10:30pm 8.1 4.3 -3.4 44 4.2 NNE 7 9 4 5 1023.3 - 0.0
25/10:00pm 8.6 4.6 -2.6 45 4.2 NNE 9 9 5 5 1023.2 - 0.0
25/09:30pm 9.6 7.3 -2.3 43 4.6 CALM 0 0 0 0 1023.2 - 0.0
25/09:00pm 9.8 7.4 -2.8 41 4.8 CALM 0 0 0 0 1023.0 1023.1 0.0
25/08:30pm 10.4 8.0 -3.3 38 5.2 CALM 0 0 0 0 1023.0 - 0.0
25/08:00pm 11.2 8.8 -3.3 36 5.5 CALM 0 0 0 0 1022.9 - 0.0
25/07:30pm 12.2 9.8 -3.2 34 6.0 CALM 0 0 0 0 1022.6 - 0.0
25/07:00pm 13.2 10.8 -3.5 31 6.5 CALM 0 0 0 0 1022.5 - 0.0
25/06:30pm 15.5 12.3 -3.9 26 7.6 SE 4 6 2 3 1022.4 - 0.0
25/06:00pm 17.9 14.1 -3.5 23 8.7 SE 7 7 4 4 1022.2 1022.3 0.0
25/05:30pm 19.6 15.5 -3.3 21 9.5 SSE 9 13 5 7 1022.1 - 0.0
25/05:00pm 21.8 17.9 -4.3 17 10.9 SE 7 11 4 6 1021.9 - 0.0
25/04:30pm 22.5 17.9 -4.5 16 11.3 S 11 15 6 8 1021.9 - 0.0
25/04:00pm 22.7 18.4 -5.2 15 11.5 SE 9 13 5 7 1021.9 - 0.0
25/03:30pm 23.0 19.6 -5.0 15 11.6 ENE 4 9 2 5 1021.9 - 0.0
25/03:00pm 23.0 18.3 -5.0 15 11.6 SSW 11 19 6 10 1021.9 1022.0 0.0
25/02:30pm 22.8 17.6 -6.1 14 11.7 SW 13 22 7 12 1022.1 - 0.0
25/02:00pm 22.8 17.7 -5.2 15 11.6 SSW 13 22 7 12 1022.4 - 0.0
25/01:30pm 22.0 18.0 -5.8 15 11.3 SW 7 17 4 9 1022.7 - 0.0
25/01:00pm 22.4 18.2 -3.8 17 11.1 SW 9 22 5 12 1023.0 - 0.0
25/12:30pm 22.0 18.2 -4.1 17 10.9 S 7 15 4 8 1023.6 - 0.0
25/12:00pm 21.8 17.7 -2.8 19 10.5 S 9 17 5 9 1024.3 1024.4 0.0
25/11:30am 20.6 16.0 -3.8 19 10.1 S 11 19 6 10 1024.9 - 0.0
25/11:00am 20.7 17.1 -2.4 21 9.9 NNW 7 13 4 7 1025.4 - 0.0
25/10:30am 19.8 16.3 -1.3 24 9.2 NE 7 11 4 6 1025.7 - 0.0
25/10:00am 18.6 15.1 -1.3 26 8.5 NNE 7 11 4 6 1025.8 - 0.0
25/09:30am 16.9 13.5 -0.8 30 7.6 NE 7 9 4 5 1025.8 - 0.0
25/09:00am 14.5 10.9 -2.0 32 6.7 NNE 7 11 4 6 1025.6 1025.7 0.0
25/08:30am 11.7 9.7 -0.4 43 5.0 CALM 0 0 0 0 1025.4 - 0.0
25/08:00am 7.6 5.6 0.1 59 3.0 CALM 0 0 0 0 1025.2 - 0.0
25/07:30am 3.5 1.5 -0.1 77 1.4 CALM 0 0 0 0 1024.8 - 0.0
25/07:00am 2.5 -0.7 -0.6 80 1.1 N 6 6 3 3 1024.6 - 0.0
25/06:30am 2.5 0.3 -1.3 76 1.4 CALM 0 0 0 0 1024.2 - 0.0
25/06:00am 2.3 0.0 -2.6 70 1.7 CALM 0 0 0 0 1023.9 1024.0 0.0
25/05:30am 2.4 0.1 -2.1 72 1.6 CALM 0 0 0 0 1023.6 - 0.0
25/05:00am 3.0 0.8 -1.5 72 1.6 CALM 0 0 0 0 1023.2 - 0.0
25/04:30am 3.2 1.0 -1.7 70 1.8 CALM 0 0 0 0 1023.1 - 0.0
25/04:00am 3.4 1.3 -1.0 73 1.6 CALM 0 0 0 0 1023.1 - 0.0
25/03:30am 3.5 1.2 -2.4 65 2.1 CALM 0 0 0 0 1023.1 - 0.0
25/03:00am 3.7 1.6 -1.1 71 1.8 CALM 0 0 0 0 1023.0 1023.1 0.0
25/02:30am 4.0 1.8 -1.2 69 1.9 CALM 0 0 0 0 1022.9 - 0.0
25/02:00am 4.7 2.5 -1.7 63 2.4 CALM 0 0 0 0 1023.0 - 0.0
25/01:30am 5.1 2.8 -2.5 58 2.7 CALM 0 0 0 0 1023.1 - 0.0
25/01:00am 5.7 3.5 -1.9 58 2.8 CALM 0 0 0 0 1023.1 - 0.0
25/12:30am 6.2 3.9 -2.2 55 3.1 CALM 0 0 0 0 1023.1 - 0.0
25/12:00am 6.4 4.1 -2.5 53 3.3 CALM 0 0 0 0 1023.1 1023.2 0.0
 
Date/Time
EST
Temp
°C
App
Temp
°C
Dew
Point
°C
Rel
Hum
%
Delta-T
°C
Wind Press
QNH
hPa
Press
MSL
hPa
Rain since
9am
mm
Dir  Spd
km/h
Gust
km/h
Spd
kts
Gust
kts
24/11:30pm 7.2 4.8 -2.8 49 3.7 CALM 0 0 0 0 1023.1 - 0.0
24/11:00pm 8.1 5.8 -2.0 49 3.8 CALM 0 0 0 0 1023.0 - 0.0
24/10:30pm 8.2 5.8 -3.0 45 4.2 CALM 0 0 0 0 1023.0 - 0.0
24/10:00pm 8.7 6.3 -3.2 43 4.4 CALM 0 0 0 0 1022.8 - 0.0
24/09:30pm 9.4 6.3 -2.8 42 4.6 SSW 4 6 2 3 1022.8 - 0.0
24/09:00pm 9.7 6.3 -2.3 43 4.6 SSW 6 6 3 3 1022.7 1022.8 0.0
24/08:30pm 10.2 6.7 -3.1 39 5.0 SW 6 6 3 3 1022.6 - 0.0
24/08:00pm 11.3 8.9 -2.8 37 5.4 CALM 0 0 0 0 1022.4 - 0.0
24/07:30pm 12.3 9.8 -3.9 32 6.2 CALM 0 0 0 0 1022.2 - 0.0
24/07:00pm 13.8 11.3 -4.4 28 7.0 CALM 0 0 0 0 1022.0 - 0.0
24/06:30pm 15.9 13.4 -4.1 25 7.9 CALM 0 0 0 0 1021.7 - 0.0
24/06:00pm 18.0 14.1 -4.6 21 9.0 SW 7 9 4 5 1021.4 1021.5 0.0
24/05:30pm 20.4 15.7 -5.4 17 10.4 SW 11 15 6 8 1021.1 - 0.0
24/05:00pm 22.7 17.1 -6.1 14 11.7 SSW 15 19 8 10 1020.9 - 0.0
24/04:30pm 23.5 17.9 -6.5 13 12.2 SW 15 19 8 10 1020.7 - 0.0
24/04:00pm 23.8 18.6 -6.2 13 12.3 SW 13 20 7 11 1020.6 - 0.0
24/03:30pm 24.1 19.3 -6.0 13 12.4 WSW 11 20 6 11 1020.6 - 0.0
24/03:00pm 23.7 19.0 -5.3 14 12.0 WSW 11 19 6 10 1020.7 1020.8 0.0
24/02:30pm 23.7 18.1 -6.3 13 12.2 SW 15 20 8 11 1020.9 - 0.0
24/02:00pm 24.2 19.8 -5.9 13 12.4 WNW 9 20 5 11 1021.1 - 0.0
24/01:30pm 23.1 17.5 -6.8 13 12.0 SW 15 24 8 13 1021.4 - 0.0
24/01:00pm 22.8 17.1 -7.0 13 11.9 SW 15 22 8 12 1021.9 - 0.0
24/12:30pm 22.3 17.0 -7.4 13 11.7 WSW 13 20 7 11 1022.4 - 0.0
24/12:00pm 21.9 17.0 -6.8 14 11.3 W 11 17 6 9 1023.0 1023.1 0.0
24/11:30am 20.9 16.9 -5.8 16 10.7 WNW 7 13 4 7 1023.5 - 0.0
24/11:00am 19.8 15.5 -4.5 19 9.9 NNW 9 15 5 8 1023.8 - 0.0
24/10:30am 18.6 14.0 -4.1 21 9.2 NNW 11 15 6 8 1024.1 - 0.0
24/10:00am 17.2 12.7 -3.5 24 8.4 N 11 17 6 9 1024.1 - 0.0
24/09:30am 15.5 11.0 -2.9 28 7.4 NNW 11 15 6 8 1024.0 - 0.0
24/09:00am 13.3 9.1 -3.9 30 6.6 N 9 15 5 8 1023.9 1024.0 0.0
24/08:30am 11.8 8.0 -3.9 33 5.9 NNW 7 9 4 5 1023.7 - 0.0
24/08:00am 9.8 7.4 -3.5 39 5.0 CALM 0 0 0 0 1023.4 - 0.0
24/07:30am 7.3 4.9 -3.5 46 3.9 CALM 0 17 0 9 1023.1 - 0.0
24/07:00am 7.9 3.3 -3.9 43 4.3 N 11 15 6 8 1022.4 - 0.0
24/06:30am 6.8 2.6 -4.0 46 3.8 N 9 13 5 7 1021.7 - 0.0
24/06:00am 5.8 1.9 -4.3 48 3.5 N 7 11 4 6 1021.5 1021.6 0.0
24/05:30am 6.5 2.3 -4.0 47 3.7 N 9 13 5 7 1021.1 - 0.0
24/05:00am 6.6 2.4 -3.9 47 3.7 N 9 13 5 7 1020.9 - 0.0
24/04:30am 4.3 0.2 -3.0 59 2.6 N 9 13 5 7 1020.9 - 0.0
24/04:00am 2.5 -1.2 -3.0 67 1.9 N 7 9 4 5 1020.8 - 0.0
24/03:30am 2.8 -0.6 -2.1 70 1.7 N 6 7 3 4 1021.1 - 0.0
24/03:00am 3.1 -0.2 -1.1 74 1.5 N 6 7 3 4 1021.3 1021.4 0.0
24/02:30am 3.3 1.2 -0.5 76 1.4 CALM 0 0 0 0 1021.3 - 0.0
24/02:00am 3.5 1.4 -1.1 72 1.7 CALM 0 0 0 0 1021.4 - 0.0
24/01:30am 3.6 1.4 -1.9 67 2.0 CALM 0 0 0 0 1021.4 - 0.0
24/01:00am 3.4 0.9 -3.6 60 2.4 CALM 0 0 0 0 1021.4 - 0.0
24/12:30am 4.2 2.0 -1.2 68 2.0 CALM 0 0 0 0 1021.2 - 0.0
24/12:00am 4.8 2.6 -1.4 64 2.3 CALM 0 0 0 0 1021.3 1021.4 0.0
 
Date/Time
EST
Temp
°C
App
Temp
°C
Dew
Point
°C
Rel
Hum
%
Delta-T
°C
Wind Press
QNH
hPa
Press
MSL
hPa
Rain since
9am
mm
Dir  Spd
km/h
Gust
km/h
Spd
kts
Gust
kts
23/11:30pm 5.4 3.1 -2.7 56 2.9 CALM 0 0 0 0 1021.5 - 0.0
23/11:00pm 5.6 3.2 -3.5 52 3.2 CALM 0 0 0 0 1021.8 - 0.0
23/10:30pm 5.8 3.4 -3.5 51 3.3 CALM 0 0 0 0 1021.7 - 0.0
23/10:00pm 6.2 3.7 -4.0 48 3.6 CALM 0 0 0 0 1021.7 - 0.0
23/09:30pm 7.0 4.6 -3.2 48 3.7 CALM 0 0 0 0 1021.5 - 0.0
23/09:00pm 7.4 4.9 -4.3 43 4.1 CALM 0 0 0 0 1021.2 1021.3 0.0
23/08:30pm 8.3 5.7 -4.5 40 4.6 CALM 0 0 0 0 1020.9 - 0.0
23/08:00pm 9.5 7.0 -4.4 37 5.1 CALM 0 0 0 0 1020.7 - 0.0
23/07:30pm 10.7 8.1 -4.5 34 5.6 CALM 0 0 0 0 1020.5 - 0.0
23/07:00pm 11.9 9.3 -5.1 30 6.3 CALM 0 0 0 0 1020.3 - 0.0
23/06:30pm 14.6 12.0 -4.7 26 7.4 CALM 0 0 0 0 1020.1 - 0.0
23/06:00pm 16.3 12.0 -4.8 23 8.2 S 9 11 5 6 1019.8 1019.9 0.0
23/05:30pm 18.1 13.4 -5.2 20 9.2 S 11 13 6 7 1019.5 - 0.0
23/05:00pm 20.7 15.8 -6.8 15 10.8 SW 11 15 6 8 1019.2 - 0.0
23/04:30pm 21.3 15.6 -7.2 14 11.2 SSW 15 20 8 11 1019.1 - 0.0
23/04:00pm 21.9 16.3 -6.8 14 11.4 WSW 15 20 8 11 1018.9 - 0.0
23/03:30pm 21.9 16.6 -7.7 13 11.5 WSW 13 19 7 10 1018.8 - 0.0
23/03:00pm 22.3 17.5 -6.5 14 11.5 W 11 24 6 13 1018.9 1019.0 0.0

Other Formats:

Comma delimited format used in spreadsheet applications
http://www.bom.gov.au/fwo/IDQ60801/IDQ60801.94517.axf

JavaScript Object Notation format (JSON) in row-major order
http://www.bom.gov.au/fwo/IDQ60801/IDQ60801.94517.json